Time;durP1;ratioP1;P1;durP2;ratioP2;P2;SDS_P1;SDS_P2;PMS_P1;PMS_P2;Temp;Humidity;BMP_temperature;BMP_pressure;BME280_temperature;BME280_humidity;BME280_pressure;Samples;Min_cycle;Max_cycle;Signal;HPM_P1;HPM_P2
2023/06/10 00:01:36;;;;;;;;;12.00;10.25;;;;;;;;4956062;28;45377;-71
2023/06/10 00:04:02;;;;;;;;;11.00;11.00;;;;;;;;4957268;28;47431;-71
2023/06/10 00:06:28;;;;;;;;;13.25;13.00;;;;;;;;4956225;28;45449;-71
2023/06/10 00:08:54;;;;;;;;;13.00;12.00;;;;;;;;4956240;28;45389;-72
2023/06/10 00:11:19;;;;;;;;;18.50;15.75;;;;;;;;4954260;28;45477;-71
2023/06/10 00:13:45;;;;;;;;;14.75;14.00;;;;;;;;4956737;28;46268;-71
2023/06/10 00:16:10;;;;;;;;;12.00;12.00;;;;;;;;4951639;28;45448;-72
2023/06/10 00:18:38;;;;;;;;;16.75;15.75;;;;;;;;4947543;28;45597;-71
2023/06/10 00:21:04;;;;;;;;;20.50;18.50;;;;;;;;4954433;28;45485;-71
2023/06/10 00:23:38;;;;;;;;;17.75;15.75;;;;;;;;4954830;28;47469;-71
2023/06/10 00:26:03;;;;;;;;;19.25;17.75;;;;;;;;4955952;28;45457;-71
2023/06/10 00:28:28;;;;;;;;;16.75;15.00;;;;;;;;4957051;28;45338;-71
2023/06/10 00:30:53;;;;;;;;;13.00;12.00;;;;;;;;4954630;28;45453;-71
2023/06/10 00:33:18;;;;;;;;;19.50;14.00;;;;;;;;4956769;28;47308;-71
2023/06/10 00:35:44;;;;;;;;;11.00;11.00;;;;;;;;4956979;28;45410;-71
2023/06/10 00:38:09;;;;;;;;;13.25;12.00;;;;;;;;4957103;28;45401;-72
2023/06/10 00:40:40;;;;;;;;;14.50;13.50;;;;;;;;4956207;28;45473;-71
2023/06/10 00:43:06;;;;;;;;;10.00;10.00;;;;;;;;4951374;28;46566;-71
2023/06/10 00:45:31;;;;;;;;;5.25;4.75;;;;;;;;4956867;28;45390;-71
2023/06/10 00:47:56;;;;;;;;;5.75;5.25;;;;;;;;4956616;28;45382;-72
2023/06/10 00:50:22;;;;;;;;;6.50;5.25;;;;;;;;4956586;28;45294;-71
2023/06/10 00:52:48;;;;;;;;;1.75;1.75;;;;;;;;4956446;28;45979;-71
2023/06/10 00:55:14;;;;;;;;;7.50;7.50;;;;;;;;4956426;28;45838;-71
2023/06/10 00:57:39;;;;;;;;;6.50;5.00;;;;;;;;4956741;28;45317;-72
2023/06/10 01:00:07;;;;;;;;;8.00;5.00;;;;;;;;4955488;28;45801;-71
2023/06/10 01:02:32;;;;;;;;;5.00;5.00;;;;;;;;4968852;28;47380;-71
2023/06/10 01:04:59;;;;;;;;;4.00;4.00;;;;;;;;4969435;28;45354;-71
2023/06/10 01:07:37;;;;;;;;;5.00;4.25;;;;;;;;4935863;28;45426;-71
2023/06/10 01:10:09;;;;;;;;;7.50;7.50;;;;;;;;4936404;28;45570;-72
2023/06/10 01:12:59;;;;;;;;;6.00;4.00;;;;;;;;4936431;28;46770;-72
2023/06/10 01:15:24;;;;;;;;;5.25;5.25;;;;;;;;4936858;28;45389;-72
2023/06/10 01:17:57;;;;;;;;;6.25;5.00;;;;;;;;4935605;28;45353;-72
2023/06/10 01:20:23;;;;;;;;;4.25;4.25;;;;;;;;4937016;28;45461;-72
2023/06/10 01:22:49;;;;;;;;;4.25;4.25;;;;;;;;4936612;28;46114;-72
2023/06/10 01:25:15;;;;;;;;;6.00;5.75;;;;;;;;4936081;28;45429;-72
2023/06/10 01:27:40;;;;;;;;;4.75;4.00;;;;;;;;4936963;28;45550;-72
2023/06/10 01:30:13;;;;;;;;;6.00;5.75;;;;;;;;4953618;28;45620;-72
2023/06/10 01:32:42;;;;;;;;;6.00;5.00;;;;;;;;4955962;28;46464;-72
2023/06/10 01:35:08;;;;;;;;;9.00;6.00;;;;;;;;4955866;28;45353;-72
2023/06/10 01:37:34;;;;;;;;;6.50;6.50;;;;;;;;4956142;28;45302;-72
2023/06/10 01:40:00;;;;;;;;;5.50;5.50;;;;;;;;4956059;28;45421;-73
2023/06/10 01:42:25;;;;;;;;;3.75;3.75;;;;;;;;4944059;28;45449;-72
2023/06/10 01:44:50;;;;;;;;;6.00;4.25;;;;;;;;4937918;28;45310;-73
2023/06/10 01:47:16;;;;;;;;;5.50;5.50;;;;;;;;4955589;28;45608;-72
2023/06/10 01:49:41;;;;;;;;;5.75;5.00;;;;;;;;4955858;28;45564;-72
2023/06/10 01:52:06;;;;;;;;;4.00;4.00;;;;;;;;4955416;28;46986;-72
2023/06/10 01:54:34;;;;;;;;;8.00;7.00;;;;;;;;4955641;28;45533;-72
2023/06/10 01:56:59;;;;;;;;;5.50;5.50;;;;;;;;4955416;28;45459;-72
2023/06/10 01:59:25;;;;;;;;;4.00;4.00;;;;;;;;4955608;28;45398;-72
2023/06/10 02:01:50;;;;;;;;;7.50;6.75;;;;;;;;4955431;28;45442;-72
2023/06/10 02:04:16;;;;;;;;;5.00;5.00;;;;;;;;4955502;28;45412;-72
2023/06/10 02:06:41;;;;;;;;;9.75;6.00;;;;;;;;4955528;28;45385;-72
2023/06/10 02:09:07;;;;;;;;;5.00;5.00;;;;;;;;4955283;28;45413;-72
2023/06/10 02:11:32;;;;;;;;;5.50;5.00;;;;;;;;4955578;28;45402;-72
2023/06/10 02:13:57;;;;;;;;;6.75;4.75;;;;;;;;4955424;28;45588;-72
2023/06/10 02:16:22;;;;;;;;;7.25;6.00;;;;;;;;4955467;28;45441;-72
2023/06/10 02:18:48;;;;;;;;;4.75;4.75;;;;;;;;4955875;28;45473;-72
2023/06/10 02:21:13;;;;;;;;;4.25;4.25;;;;;;;;4953634;28;45452;-72
2023/06/10 02:23:38;;;;;;;;;4.00;4.00;;;;;;;;4955512;28;45437;-71
2023/06/10 02:26:04;;;;;;;;;6.50;5.50;;;;;;;;4955132;28;45429;-72
2023/06/10 02:28:29;;;;;;;;;4.75;4.75;;;;;;;;4955395;28;45550;-72
2023/06/10 02:30:54;;;;;;;;;5.25;5.25;;;;;;;;4950354;28;47597;-72
2023/06/10 02:33:19;;;;;;;;;4.00;4.00;;;;;;;;4959093;28;45370;-72
2023/06/10 02:35:45;;;;;;;;;5.00;5.00;;;;;;;;4958859;28;45389;-72
2023/06/10 02:38:10;;;;;;;;;5.50;5.50;;;;;;;;4958433;28;45538;-72
2023/06/10 02:40:35;;;;;;;;;5.50;4.00;;;;;;;;4958346;28;46525;-72
2023/06/10 02:43:00;;;;;;;;;3.75;3.75;;;;;;;;4942709;28;45314;-72
2023/06/10 02:45:26;;;;;;;;;7.25;6.00;;;;;;;;4940198;28;45509;-72
2023/06/10 02:47:51;;;;;;;;;6.00;4.75;;;;;;;;4942486;28;45379;-72
2023/06/10 02:50:16;;;;;;;;;3.00;3.00;;;;;;;;4956691;28;47671;-72
2023/06/10 02:52:41;;;;;;;;;5.50;5.00;;;;;;;;4965558;28;45474;-72
2023/06/10 02:55:07;;;;;;;;;5.00;4.50;;;;;;;;4966265;28;45340;-72
2023/06/10 02:57:32;;;;;;;;;5.50;3.00;;;;;;;;4966296;28;45474;-72
2023/06/10 02:59:58;;;;;;;;;4.50;4.00;;;;;;;;4965710;28;45591;-72
2023/06/10 03:02:28;;;;;;;;;5.75;4.75;;;;;;;;4965216;28;45463;-72
2023/06/10 03:04:56;;;;;;;;;3.75;3.75;;;;;;;;4965716;28;45290;-72
2023/06/10 03:07:21;;;;;;;;;5.00;3.75;;;;;;;;4964735;28;45152;-72
2023/06/10 03:09:46;;;;;;;;;6.25;5.00;;;;;;;;4962565;28;45406;-72
2023/06/10 03:12:12;;;;;;;;;6.00;5.00;;;;;;;;4958320;28;45436;-72
2023/06/10 03:14:38;;;;;;;;;4.25;4.25;;;;;;;;4958102;28;45448;-72
2023/06/10 03:17:04;;;;;;;;;5.75;5.00;;;;;;;;4958341;28;45456;-72
2023/06/10 03:19:30;;;;;;;;;5.75;4.25;;;;;;;;4957626;28;45953;-72
2023/06/10 03:22:12;;;;;;;;;5.00;5.00;;;;;;;;4958287;28;45393;-72
2023/06/10 03:24:39;;;;;;;;;4.00;4.00;;;;;;;;4958250;28;45507;-72
2023/06/10 03:27:05;;;;;;;;;5.00;3.75;;;;;;;;4958283;28;45410;-72
2023/06/10 03:29:32;;;;;;;;;5.25;3.50;;;;;;;;4957674;28;46850;-72
2023/06/10 03:31:57;;;;;;;;;6.25;6.25;;;;;;;;4957711;28;45495;-72
2023/06/10 03:34:23;;;;;;;;;6.00;3.00;;;;;;;;4957758;28;45483;-72
2023/06/10 03:36:48;;;;;;;;;4.75;3.75;;;;;;;;4958165;28;45390;-72
2023/06/10 03:39:13;;;;;;;;;5.50;5.50;;;;;;;;4957883;28;46041;-72
2023/06/10 03:41:39;;;;;;;;;6.75;6.00;;;;;;;;4957022;28;45263;-72
2023/06/10 03:44:04;;;;;;;;;3.00;3.00;;;;;;;;4957752;28;45455;-72
2023/06/10 03:46:29;;;;;;;;;5.00;5.00;;;;;;;;4957670;28;45550;-72
2023/06/10 03:48:54;;;;;;;;;3.75;2.50;;;;;;;;4957597;28;46565;-72
2023/06/10 03:51:19;;;;;;;;;5.50;4.50;;;;;;;;4957583;28;45497;-72
2023/06/10 03:53:45;;;;;;;;;9.00;5.25;;;;;;;;4957803;28;45309;-72
2023/06/10 03:56:10;;;;;;;;;6.00;5.00;;;;;;;;4958000;28;45351;-72
2023/06/10 03:58:35;;;;;;;;;5.00;4.00;;;;;;;;4956239;28;46723;-72
2023/06/10 04:01:00;;;;;;;;;3.75;3.75;;;;;;;;4957798;28;45235;-72
2023/06/10 04:03:26;;;;;;;;;6.75;4.75;;;;;;;;4957524;28;45244;-71
2023/06/10 04:05:51;;;;;;;;;4.50;4.50;;;;;;;;4957450;28;45413;-72
2023/06/10 04:08:17;;;;;;;;;5.00;5.00;;;;;;;;4943837;28;45426;-72
2023/06/10 04:10:42;;;;;;;;;4.00;4.00;;;;;;;;4938035;28;45514;-72
2023/06/10 04:13:08;;;;;;;;;5.75;5.75;;;;;;;;4938388;28;45405;-72
2023/06/10 04:15:34;;;;;;;;;3.00;3.00;;;;;;;;4938337;28;45618;-72
2023/06/10 04:18:00;;;;;;;;;4.00;4.00;;;;;;;;4948911;28;46947;-72
2023/06/10 04:20:26;;;;;;;;;5.00;3.75;;;;;;;;4957390;28;45418;-72
2023/06/10 04:22:51;;;;;;;;;5.00;5.00;;;;;;;;4957045;28;45437;-72
2023/06/10 04:25:16;;;;;;;;;5.00;5.00;;;;;;;;4957405;28;45370;-72
2023/06/10 04:27:41;;;;;;;;;5.75;4.75;;;;;;;;4957281;28;45403;-72
2023/06/10 04:30:07;;;;;;;;;4.50;3.50;;;;;;;;4956541;28;45400;-72
2023/06/10 04:32:32;;;;;;;;;4.00;3.00;;;;;;;;4956909;28;45350;-72
2023/06/10 04:34:57;;;;;;;;;4.75;3.00;;;;;;;;4957168;28;45381;-72
2023/06/10 04:37:22;;;;;;;;;3.50;2.50;;;;;;;;4955565;28;48303;-72
2023/06/10 04:39:48;;;;;;;;;3.25;3.25;;;;;;;;4957268;28;45436;-72
2023/06/10 04:42:13;;;;;;;;;4.00;4.00;;;;;;;;4948106;28;45307;-72
2023/06/10 04:44:38;;;;;;;;;4.00;4.00;;;;;;;;4937710;28;45310;-72
2023/06/10 04:47:04;;;;;;;;;5.00;5.00;;;;;;;;4937356;28;46458;-72
2023/06/10 04:49:29;;;;;;;;;6.25;4.00;;;;;;;;4937273;28;45335;-71
2023/06/10 04:51:55;;;;;;;;;4.50;4.50;;;;;;;;4936251;28;45357;-72
2023/06/10 04:54:20;;;;;;;;;7.00;5.00;;;;;;;;4936773;28;45308;-71
2023/06/10 04:56:45;;;;;;;;;5.00;4.00;;;;;;;;4937399;28;46357;-71
2023/06/10 04:59:10;;;;;;;;;4.25;3.50;;;;;;;;4937641;28;45375;-71
2023/06/10 05:01:35;;;;;;;;;3.50;3.50;;;;;;;;4945589;28;45271;-71
2023/06/10 05:04:01;;;;;;;;;2.75;2.25;;;;;;;;4956654;28;45453;-71
2023/06/10 05:06:26;;;;;;;;;3.00;3.00;;;;;;;;4956521;28;46127;-71
2023/06/10 05:08:51;;;;;;;;;5.50;3.75;;;;;;;;4956686;28;45396;-71
2023/06/10 05:11:16;;;;;;;;;5.25;5.00;;;;;;;;4956559;28;45418;-71
2023/06/10 05:13:42;;;;;;;;;6.25;5.00;;;;;;;;4956495;28;45950;-70
2023/06/10 05:16:09;;;;;;;;;5.75;4.00;;;;;;;;4955949;28;45460;-71
2023/06/10 05:18:35;;;;;;;;;5.25;5.25;;;;;;;;4955787;28;45450;-70
2023/06/10 05:21:00;;;;;;;;;5.00;3.75;;;;;;;;4956543;28;45523;-71
2023/06/10 05:23:25;;;;;;;;;3.00;3.00;;;;;;;;4956153;28;45455;-71
2023/06/10 05:25:51;;;;;;;;;4.00;4.00;;;;;;;;4956146;28;46101;-72
2023/06/10 05:28:16;;;;;;;;;3.25;3.25;;;;;;;;4956104;28;45421;-72
2023/06/10 05:30:41;;;;;;;;;2.75;2.75;;;;;;;;4956076;28;45477;-72
2023/06/10 05:33:06;;;;;;;;;5.00;3.75;;;;;;;;4956486;28;45433;-73
2023/06/10 05:35:31;;;;;;;;;3.25;3.25;;;;;;;;4956156;28;46654;-72
2023/06/10 05:37:57;;;;;;;;;5.50;5.00;;;;;;;;4955911;28;45521;-72
2023/06/10 05:40:22;;;;;;;;;3.50;3.50;;;;;;;;4956163;28;45385;-75
2023/06/10 05:42:47;;;;;;;;;3.50;3.50;;;;;;;;4943092;28;45523;-72
2023/06/10 05:45:12;;;;;;;;;4.75;3.25;;;;;;;;4936679;28;46212;-73
2023/06/10 05:47:38;;;;;;;;;4.50;3.25;;;;;;;;4936779;28;45466;-72
2023/06/10 05:50:06;;;;;;;;;5.50;4.25;;;;;;;;4948878;28;45473;-72
2023/06/10 05:52:32;;;;;;;;;6.25;4.25;;;;;;;;4956079;28;45462;-73
2023/06/10 05:54:59;;;;;;;;;6.25;5.25;;;;;;;;4955891;28;45305;-73
2023/06/10 05:57:24;;;;;;;;;3.00;3.00;;;;;;;;4956090;28;45471;-73
2023/06/10 05:59:49;;;;;;;;;6.25;5.00;;;;;;;;4955792;28;45418;-72
2023/06/10 06:02:15;;;;;;;;;4.50;3.25;;;;;;;;4954431;28;45469;-72
2023/06/10 06:04:40;;;;;;;;;1.00;1.00;;;;;;;;4956762;28;46418;-73
2023/06/10 06:07:05;;;;;;;;;8.00;5.00;;;;;;;;4959246;28;45397;-71
2023/06/10 06:09:30;;;;;;;;;4.50;3.50;;;;;;;;4959339;28;45389;-70
2023/06/10 06:11:55;;;;;;;;;5.50;4.25;;;;;;;;4959153;28;45454;-71
2023/06/10 06:14:21;;;;;;;;;5.00;5.00;;;;;;;;4958866;28;46488;-71
2023/06/10 06:16:46;;;;;;;;;4.50;4.50;;;;;;;;4959205;28;45421;-71
2023/06/10 06:19:11;;;;;;;;;4.50;3.75;;;;;;;;4958321;28;45502;-71
2023/06/10 06:21:36;;;;;;;;;4.50;4.50;;;;;;;;4958333;28;45404;-72
2023/06/10 06:24:01;;;;;;;;;7.75;6.25;;;;;;;;4958744;28;46241;-71
2023/06/10 06:26:27;;;;;;;;;4.00;4.00;;;;;;;;4959010;28;45378;-72
2023/06/10 06:28:52;;;;;;;;;5.00;5.00;;;;;;;;4958678;28;45335;-71
2023/06/10 06:31:17;;;;;;;;;3.75;3.75;;;;;;;;4957526;28;45350;-71
2023/06/10 06:33:42;;;;;;;;;6.00;6.00;;;;;;;;4958971;28;45587;-72
2023/06/10 06:36:08;;;;;;;;;4.75;4.75;;;;;;;;4958937;28;45507;-71
2023/06/10 06:38:33;;;;;;;;;2.75;2.75;;;;;;;;4959018;28;45310;-72
2023/06/10 06:41:02;;;;;;;;;4.25;4.25;;;;;;;;4959072;28;45359;-72
2023/06/10 06:43:28;;;;;;;;;4.00;4.00;;;;;;;;4939860;28;46018;-73
2023/06/10 06:45:53;;;;;;;;;3.25;3.25;;;;;;;;4939438;28;45541;-72
2023/06/10 06:48:18;;;;;;;;;5.25;5.25;;;;;;;;4939267;28;45453;-73
2023/06/10 06:50:43;;;;;;;;;5.75;4.50;;;;;;;;4939683;28;45584;-73
2023/06/10 06:53:08;;;;;;;;;4.00;4.00;;;;;;;;4939236;28;45523;-75
2023/06/10 06:55:34;;;;;;;;;3.00;3.00;;;;;;;;4939642;28;45512;-74
2023/06/10 06:58:02;;;;;;;;;5.25;4.25;;;;;;;;4939062;28;45501;-73
2023/06/10 07:00:27;;;;;;;;;4.50;4.25;;;;;;;;4939243;28;45322;-72
2023/06/10 07:02:52;;;;;;;;;6.25;4.75;;;;;;;;4939237;28;45438;-76
2023/06/10 07:05:18;;;;;;;;;5.50;5.50;;;;;;;;4946428;28;45473;-79
2023/06/10 07:07:43;;;;;;;;;4.50;3.00;;;;;;;;4970986;28;45416;-82
2023/06/10 07:10:08;;;;;;;;;7.00;5.00;;;;;;;;4979584;28;45535;-74
2023/06/10 07:12:33;;;;;;;;;7.25;6.00;;;;;;;;4978899;28;46638;-71
2023/06/10 07:14:59;;;;;;;;;5.00;5.00;;;;;;;;4978139;28;45334;-72
2023/06/10 07:17:24;;;;;;;;;4.25;4.00;;;;;;;;4962501;28;45508;-77
2023/06/10 07:19:51;;;;;;;;;3.75;3.75;;;;;;;;4939527;28;45374;-74
2023/06/10 07:22:16;;;;;;;;;4.00;4.00;;;;;;;;4939952;28;46186;-79
2023/06/10 07:24:41;;;;;;;;;5.00;5.00;;;;;;;;4948618;28;45472;-71
2023/06/10 07:27:07;;;;;;;;;3.25;3.00;;;;;;;;4947897;28;45484;-70
2023/06/10 07:29:32;;;;;;;;;4.00;3.75;;;;;;;;4948587;28;45491;-70
2023/06/10 07:31:57;;;;;;;;;3.50;3.50;;;;;;;;4946688;28;46135;-70
2023/06/10 07:34:22;;;;;;;;;4.00;3.00;;;;;;;;4947441;28;45441;-70
2023/06/10 07:36:48;;;;;;;;;4.00;4.00;;;;;;;;4945873;28;45553;-70
2023/06/10 07:39:13;;;;;;;;;4.50;4.50;;;;;;;;4946805;28;45417;-68
2023/06/10 07:41:38;;;;;;;;;2.50;2.50;;;;;;;;4948387;28;45521;-68
2023/06/10 07:44:03;;;;;;;;;4.75;3.75;;;;;;;;4947779;28;45348;-68
2023/06/10 07:46:28;;;;;;;;;4.00;4.00;;;;;;;;4945476;28;45529;-69
2023/06/10 07:48:54;;;;;;;;;4.00;4.00;;;;;;;;4948551;28;45571;-68
2023/06/10 07:51:20;;;;;;;;;5.00;4.50;;;;;;;;4946841;28;46927;-69
2023/06/10 07:53:45;;;;;;;;;4.00;4.00;;;;;;;;4947015;28;45376;-67
2023/06/10 07:56:10;;;;;;;;;4.75;4.00;;;;;;;;4948436;28;45342;-68
2023/06/10 07:58:36;;;;;;;;;3.75;3.75;;;;;;;;4946852;28;45418;-69
2023/06/10 08:01:01;;;;;;;;;5.25;5.25;;;;;;;;4947614;28;45493;-69
2023/06/10 08:03:26;;;;;;;;;4.00;4.00;;;;;;;;4947954;28;45358;-70
2023/06/10 08:05:51;;;;;;;;;4.75;4.50;;;;;;;;4952041;28;45534;-69
2023/06/10 08:08:16;;;;;;;;;4.75;3.25;;;;;;;;4949111;28;45528;-70
2023/06/10 08:10:42;;;;;;;;;3.50;3.50;;;;;;;;4956767;28;45462;-70
2023/06/10 08:13:08;;;;;;;;;13.00;11.50;;;;;;;;4957605;28;45520;-70
2023/06/10 08:15:33;;;;;;;;;14.50;12.25;;;;;;;;4957611;28;45342;-71
2023/06/10 08:17:58;;;;;;;;;7.00;6.25;;;;;;;;4957613;28;45418;-70
2023/06/10 08:20:23;;;;;;;;;5.50;4.50;;;;;;;;4957407;28;47525;-70
2023/06/10 08:22:49;;;;;;;;;5.00;5.00;;;;;;;;4957104;28;45341;-70
2023/06/10 08:25:14;;;;;;;;;8.75;7.00;;;;;;;;4967048;28;45410;-70
2023/06/10 08:27:39;;;;;;;;;3.50;2.25;;;;;;;;4958823;28;45669;-71
2023/06/10 08:30:05;;;;;;;;;4.50;4.50;;;;;;;;4958986;28;46321;-70
2023/06/10 08:32:30;;;;;;;;;6.00;5.00;;;;;;;;4956974;28;45538;-70
2023/06/10 08:34:55;;;;;;;;;5.00;5.00;;;;;;;;4953536;28;45555;-70
2023/06/10 08:37:21;;;;;;;;;5.00;5.00;;;;;;;;4946295;28;45441;-70
2023/06/10 08:39:47;;;;;;;;;3.75;3.75;;;;;;;;4946086;28;46595;-70
2023/06/10 08:42:28;;;;;;;;;4.00;4.00;;;;;;;;4943520;28;45610;-69
2023/06/10 08:44:55;;;;;;;;;4.25;4.25;;;;;;;;4947068;28;45365;-70
2023/06/10 08:47:21;;;;;;;;;3.75;3.75;;;;;;;;4954925;28;45330;-71
2023/06/10 08:49:47;;;;;;;;;5.00;5.00;;;;;;;;4955018;28;45453;-70
2023/06/10 08:52:19;;;;;;;;;4.75;4.75;;;;;;;;4949014;28;45468;-71
2023/06/10 08:54:49;;;;;;;;;6.00;4.50;;;;;;;;4942761;28;45563;-71
2023/06/10 08:57:15;;;;;;;;;2.00;0.00;;;;;;;;4948534;28;45619;-70
2023/06/10 08:59:40;;;;;;;;;6.75;6.00;;;;;;;;4946069;28;47129;-70
2023/06/10 09:02:06;;;;;;;;;5.75;5.75;;;;;;;;4947074;28;45482;-71
2023/06/10 09:04:32;;;;;;;;;5.50;5.00;;;;;;;;4945869;28;45473;-71
2023/06/10 09:06:57;;;;;;;;;8.50;8.50;;;;;;;;4945435;28;45377;-71
2023/06/10 09:09:23;;;;;;;;;5.00;5.00;;;;;;;;4953243;28;46814;-70
2023/06/10 09:11:48;;;;;;;;;6.50;4.25;;;;;;;;4947802;28;45478;-70
2023/06/10 09:14:14;;;;;;;;;6.00;5.00;;;;;;;;4945544;28;45464;-70
2023/06/10 09:16:39;;;;;;;;;3.75;3.75;;;;;;;;4946455;28;45461;-71
2023/06/10 09:19:07;;;;;;;;;3.25;3.25;;;;;;;;4945902;28;45809;-70
2023/06/10 09:21:33;;;;;;;;;5.50;5.00;;;;;;;;4945042;28;45322;-70
2023/06/10 09:23:58;;;;;;;;;4.75;4.00;;;;;;;;4936754;28;45438;-70
2023/06/10 09:26:27;;;;;;;;;4.50;3.50;;;;;;;;4942718;28;45545;-70
2023/06/10 09:28:57;;;;;;;;;4.25;4.25;;;;;;;;4947740;28;45578;-70
2023/06/10 09:31:22;;;;;;;;;3.00;3.00;;;;;;;;4953084;28;45358;-70
2023/06/10 09:33:47;;;;;;;;;2.50;2.50;;;;;;;;4956261;28;45290;-71
2023/06/10 09:36:21;;;;;;;;;3.25;3.25;;;;;;;;4956279;28;45454;-71
2023/06/10 09:38:49;;;;;;;;;3.50;3.50;;;;;;;;4953942;28;47318;-70
2023/06/10 09:41:15;;;;;;;;;6.00;4.50;;;;;;;;4955138;28;45454;-71
2023/06/10 09:43:41;;;;;;;;;4.00;3.75;;;;;;;;4936907;28;45395;-70
2023/06/10 09:46:07;;;;;;;;;3.50;2.25;;;;;;;;4955344;28;45601;-70
2023/06/10 09:48:40;;;;;;;;;4.00;3.00;;;;;;;;4974955;28;45459;-71
2023/06/10 09:51:08;;;;;;;;;2.50;2.50;;;;;;;;4936331;28;45325;-71
2023/06/10 09:53:33;;;;;;;;;3.25;3.25;;;;;;;;4937169;28;45355;-71
2023/06/10 09:55:59;;;;;;;;;4.50;4.00;;;;;;;;4936888;28;45397;-71
2023/06/10 09:58:37;;;;;;;;;3.25;3.00;;;;;;;;4936782;28;45398;-70
2023/06/10 10:01:06;;;;;;;;;4.00;4.00;;;;;;;;4936625;28;45429;-70
2023/06/10 10:03:31;;;;;;;;;3.00;3.00;;;;;;;;4936427;28;45350;-71
2023/06/10 10:06:00;;;;;;;;;2.50;2.50;;;;;;;;4936087;28;45362;-70
2023/06/10 10:08:25;;;;;;;;;3.50;3.50;;;;;;;;4932838;28;47223;-71
2023/06/10 10:10:51;;;;;;;;;4.75;4.00;;;;;;;;4947760;28;45437;-70
2023/06/10 10:13:16;;;;;;;;;4.00;4.00;;;;;;;;4938894;28;45446;-71
2023/06/10 10:15:42;;;;;;;;;5.00;3.75;;;;;;;;4950957;28;45390;-71
2023/06/10 10:18:10;;;;;;;;;4.75;3.75;;;;;;;;4942415;28;46648;-71
2023/06/10 10:20:39;;;;;;;;;3.50;2.25;;;;;;;;4941949;28;45429;-70
2023/06/10 10:23:08;;;;;;;;;2.50;2.50;;;;;;;;4950864;28;45412;-71
2023/06/10 10:25:38;;;;;;;;;2.50;1.50;;;;;;;;4951966;28;45454;-71
2023/06/10 10:28:10;;;;;;;;;3.25;3.25;;;;;;;;4942454;28;45500;-71
2023/06/10 10:30:39;;;;;;;;;2.50;2.50;;;;;;;;4954972;28;45441;-71
2023/06/10 10:33:06;;;;;;;;;1.75;1.75;;;;;;;;4940043;28;45343;-70
2023/06/10 10:35:32;;;;;;;;;4.75;3.00;;;;;;;;4952869;28;45678;-71
2023/06/10 10:37:58;;;;;;;;;3.50;3.50;;;;;;;;4948274;28;47193;-70
2023/06/10 10:40:24;;;;;;;;;4.00;4.00;;;;;;;;4944795;28;45316;-71
2023/06/10 10:42:50;;;;;;;;;4.50;4.50;;;;;;;;4955348;28;45559;-70
2023/06/10 10:45:15;;;;;;;;;4.00;4.00;;;;;;;;4945039;28;45574;-71
2023/06/10 10:47:41;;;;;;;;;3.50;3.50;;;;;;;;4940339;28;45424;-71
2023/06/10 10:50:16;;;;;;;;;4.75;3.25;;;;;;;;4947105;28;45449;-70
2023/06/10 10:52:50;;;;;;;;;3.00;3.00;;;;;;;;4950136;28;45440;-70
2023/06/10 10:55:16;;;;;;;;;4.50;4.50;;;;;;;;4942305;28;45421;-70
2023/06/10 10:57:41;;;;;;;;;4.00;4.00;;;;;;;;4952090;28;46690;-71
2023/06/10 11:00:07;;;;;;;;;4.25;3.50;;;;;;;;4938144;28;45523;-71
2023/06/10 11:02:38;;;;;;;;;5.00;4.00;;;;;;;;4947895;28;45409;-70
2023/06/10 11:05:04;;;;;;;;;4.00;3.75;;;;;;;;4943000;28;45481;-70
2023/06/10 11:07:30;;;;;;;;;5.00;5.00;;;;;;;;4957353;28;45563;-70
2023/06/10 11:10:09;;;;;;;;;5.75;4.00;;;;;;;;4951822;28;45519;-70
2023/06/10 11:12:40;;;;;;;;;3.75;3.75;;;;;;;;4950257;28;45283;-70
2023/06/10 11:15:06;;;;;;;;;5.25;5.25;;;;;;;;4943318;28;45497;-71
2023/06/10 11:17:31;;;;;;;;;4.50;4.50;;;;;;;;4954526;28;46552;-71
2023/06/10 11:19:58;;;;;;;;;3.50;3.50;;;;;;;;4944289;28;45433;-70
2023/06/10 11:22:23;;;;;;;;;5.00;5.00;;;;;;;;4948323;28;45461;-70
2023/06/10 11:24:50;;;;;;;;;4.00;4.00;;;;;;;;4951758;28;45441;-70
2023/06/10 11:27:19;;;;;;;;;4.25;4.25;;;;;;;;4941277;28;45430;-70
2023/06/10 11:30:07;;;;;;;;;3.50;3.50;;;;;;;;4949323;28;45498;-70
2023/06/10 11:32:33;;;;;;;;;6.50;5.50;;;;;;;;4949577;28;45427;-70
2023/06/10 11:34:58;;;;;;;;;4.25;4.25;;;;;;;;4958066;28;45509;-70
2023/06/10 11:37:23;;;;;;;;;4.50;3.75;;;;;;;;4958267;28;45634;-70
2023/06/10 11:39:55;;;;;;;;;3.00;3.00;;;;;;;;4958324;28;45436;-71
2023/06/10 11:42:21;;;;;;;;;3.75;3.75;;;;;;;;4948685;28;45438;-71
2023/06/10 11:44:53;;;;;;;;;4.00;4.00;;;;;;;;4938651;28;45833;-71
2023/06/10 11:47:19;;;;;;;;;8.75;4.50;;;;;;;;4938274;28;46530;-71
2023/06/10 11:49:44;;;;;;;;;4.75;4.00;;;;;;;;4949784;28;45440;-71
2023/06/10 11:52:10;;;;;;;;;5.50;5.50;;;;;;;;4957924;28;45369;-70
2023/06/10 11:54:35;;;;;;;;;4.50;4.00;;;;;;;;4957948;28;45531;-71
2023/06/10 11:57:02;;;;;;;;;8.00;5.75;;;;;;;;4956648;28;48671;-71
2023/06/10 11:59:28;;;;;;;;;5.50;5.50;;;;;;;;4950893;28;45335;-71
2023/06/10 12:01:53;;;;;;;;;5.00;5.00;;;;;;;;4946152;28;45460;-71
2023/06/10 12:04:19;;;;;;;;;4.25;4.25;;;;;;;;4940862;28;45433;-71
2023/06/10 12:06:48;;;;;;;;;6.00;4.50;;;;;;;;4953001;28;46047;-71
2023/06/10 12:09:23;;;;;;;;;6.75;5.00;;;;;;;;4945485;28;45390;-73
2023/06/10 12:11:50;;;;;;;;;6.25;5.25;;;;;;;;4945137;28;45358;-70
2023/06/10 12:14:15;;;;;;;;;4.00;4.00;;;;;;;;4954169;28;45322;-71
2023/06/10 12:16:47;;;;;;;;;6.25;6.25;;;;;;;;4953653;28;46348;-71
2023/06/10 12:19:13;;;;;;;;;5.25;5.25;;;;;;;;4945636;28;45453;-71
2023/06/10 12:21:38;;;;;;;;;5.75;5.75;;;;;;;;4944824;28;45485;-71
2023/06/10 12:24:04;;;;;;;;;5.25;5.25;;;;;;;;4951834;28;45377;-70
2023/06/10 12:26:37;;;;;;;;;5.25;4.25;;;;;;;;4941025;28;45587;-71
2023/06/10 12:29:12;;;;;;;;;5.50;5.50;;;;;;;;4952555;28;45481;-70
2023/06/10 12:31:52;;;;;;;;;3.00;3.00;;;;;;;;4946053;28;45380;-71
2023/06/10 12:34:17;;;;;;;;;4.75;4.75;;;;;;;;4953819;28;45405;-71
2023/06/10 12:36:47;;;;;;;;;4.25;4.25;;;;;;;;4953906;28;45456;-70
2023/06/10 12:39:13;;;;;;;;;3.75;3.75;;;;;;;;4945413;28;45492;-71
2023/06/10 12:41:39;;;;;;;;;5.00;5.00;;;;;;;;4949375;28;45387;-71
2023/06/10 12:44:04;;;;;;;;;5.50;5.00;;;;;;;;4942396;28;45504;-71
2023/06/10 12:46:35;;;;;;;;;5.00;5.00;;;;;;;;4953065;28;45717;-71
2023/06/10 12:49:00;;;;;;;;;5.25;5.25;;;;;;;;4943677;28;45345;-71
2023/06/10 12:51:26;;;;;;;;;6.75;5.00;;;;;;;;4947359;28;45729;-71
2023/06/10 12:53:52;;;;;;;;;5.00;5.00;;;;;;;;4950215;28;45489;-71
2023/06/10 12:56:17;;;;;;;;;4.25;4.25;;;;;;;;4940467;28;46248;-70
2023/06/10 12:58:42;;;;;;;;;4.00;3.50;;;;;;;;4940686;28;45411;-71
2023/06/10 13:01:08;;;;;;;;;5.00;4.00;;;;;;;;4949614;28;45358;-71
2023/06/10 13:03:33;;;;;;;;;6.75;5.75;;;;;;;;4946614;28;45428;-72
2023/06/10 13:05:59;;;;;;;;;3.00;3.00;;;;;;;;4942858;28;46636;-71
2023/06/10 13:08:24;;;;;;;;;4.25;4.25;;;;;;;;4952464;28;45497;-72
2023/06/10 13:10:50;;;;;;;;;5.00;5.00;;;;;;;;4941119;28;45474;-72
2023/06/10 13:13:15;;;;;;;;;2.75;2.00;;;;;;;;4948649;28;45434;-73
2023/06/10 13:15:40;;;;;;;;;5.75;5.00;;;;;;;;4948215;28;45777;-72
2023/06/10 13:18:06;;;;;;;;;5.75;5.00;;;;;;;;4941989;28;45446;-73
2023/06/10 13:20:31;;;;;;;;;4.00;4.00;;;;;;;;4946723;28;45439;-72
2023/06/10 13:22:56;;;;;;;;;4.25;4.25;;;;;;;;4947062;28;45506;-72
2023/06/10 13:25:21;;;;;;;;;4.25;4.25;;;;;;;;4945103;28;45523;-72
2023/06/10 13:27:46;;;;;;;;;3.25;3.25;;;;;;;;4959309;28;45412;-72
2023/06/10 13:30:12;;;;;;;;;4.50;4.50;;;;;;;;4955470;28;45506;-72
2023/06/10 13:32:37;;;;;;;;;4.75;4.75;;;;;;;;4936445;28;45587;-73
2023/06/10 13:35:03;;;;;;;;;4.00;4.00;;;;;;;;4942886;28;45589;-72
2023/06/10 13:37:28;;;;;;;;;4.50;4.50;;;;;;;;4950895;28;45460;-73
2023/06/10 13:39:53;;;;;;;;;4.00;2.75;;;;;;;;4956584;28;45397;-71
2023/06/10 13:42:18;;;;;;;;;4.25;4.25;;;;;;;;4947421;28;45299;-73
2023/06/10 13:44:44;;;;;;;;;5.00;5.00;;;;;;;;4936756;28;45995;-73
2023/06/10 13:47:09;;;;;;;;;5.50;5.00;;;;;;;;4937473;28;45466;-73
2023/06/10 13:49:35;;;;;;;;;5.50;4.75;;;;;;;;4948682;28;45298;-74
2023/06/10 13:52:00;;;;;;;;;6.00;5.00;;;;;;;;4956724;28;45302;-73
2023/06/10 13:54:27;;;;;;;;;5.25;4.00;;;;;;;;4956407;28;45340;-72
2023/06/10 13:56:52;;;;;;;;;6.00;5.00;;;;;;;;4956724;28;45352;-73
2023/06/10 13:59:18;;;;;;;;;5.25;4.75;;;;;;;;4956137;28;45388;-72
2023/06/10 14:01:43;;;;;;;;;6.00;5.00;;;;;;;;4956465;28;45403;-72
2023/06/10 14:04:09;;;;;;;;;0.00;0.00;;;;;;;;4956191;28;46032;-73
2023/06/10 14:06:34;;;;;;;;;7.00;6.00;;;;;;;;4956475;28;45530;-72
2023/06/10 14:08:59;;;;;;;;;5.00;4.00;;;;;;;;4954930;28;45346;-72
2023/06/10 14:11:24;;;;;;;;;5.75;4.75;;;;;;;;4956103;28;45433;-72
2023/06/10 14:13:50;;;;;;;;;5.00;3.75;;;;;;;;4955924;28;45553;-72
2023/06/10 14:16:15;;;;;;;;;4.25;4.00;;;;;;;;4956509;28;45549;-71
2023/06/10 14:18:40;;;;;;;;;5.00;5.00;;;;;;;;4956346;28;45381;-72
2023/06/10 14:21:05;;;;;;;;;5.00;5.00;;;;;;;;4956073;28;45397;-71
2023/06/10 14:23:30;;;;;;;;;4.25;4.25;;;;;;;;4954330;28;46621;-71
2023/06/10 14:25:55;;;;;;;;;4.75;4.75;;;;;;;;4957027;28;45663;-71
2023/06/10 14:28:21;;;;;;;;;6.00;5.00;;;;;;;;4959326;28;45480;-71
2023/06/10 14:30:46;;;;;;;;;5.75;4.75;;;;;;;;4959314;28;45627;-72
2023/06/10 14:33:11;;;;;;;;;5.25;5.25;;;;;;;;4959342;28;46452;-72
2023/06/10 14:35:36;;;;;;;;;3.50;3.50;;;;;;;;4959670;28;45337;-71